Time;durP1;ratioP1;P1;durP2;ratioP2;P2;SDS_P1;SDS_P2;PMS_P1;PMS_P2;Temp;Humidity;BMP_temperature;BMP_pressure;BME280_temperature;BME280_humidity;BME280_pressure;Samples;Min_cycle;Max_cycle;Signal;HPM_P1;HPM_P2
2022/08/14 00:01:43;;;;;;;3.90;2.95;;;;;;;25.12;41.48;100903.28;4901353;29;20058;-83
2022/08/14 00:04:23;;;;;;;4.38;3.08;;;;;;;24.32;41.25;100760.19;4902133;29;20640;-82
2022/08/14 00:07:09;;;;;;;5.00;2.90;;;;;;;25.09;41.50;100887.44;4901579;29;20670;-82
2022/08/14 00:09:37;;;;;;;3.10;2.90;;;;;;;24.37;41.71;100760.38;4903323;29;20123;-82
2022/08/14 00:12:24;;;;;;;3.70;2.70;;;;;;;25.26;41.64;100904.00;4904516;29;20067;-82
2022/08/14 00:15:26;;;;;;;5.07;3.33;;;;;;;25.16;41.99;100885.47;4910454;29;20063;-82
2022/08/14 00:18:03;;;;;;;3.65;3.00;;;;;;;25.19;41.89;100900.53;4911886;29;20055;-82
2022/08/14 00:20:35;;;;;;;3.92;3.35;;;;;;;25.02;41.88;100881.25;4912712;29;20051;-82
2022/08/14 00:23:11;;;;;;;3.80;3.38;;;;;;;24.99;42.08;100898.00;4914329;29;20058;-83
2022/08/14 00:25:46;;;;;;;5.80;2.97;;;;;;;25.02;42.07;100892.94;4911241;29;20462;-82
2022/08/14 00:28:33;;;;;;;3.95;3.25;;;;;;;24.81;42.04;100858.91;4923404;29;20613;-82
2022/08/14 00:31:02;;;;;;;4.05;3.25;;;;;;;24.71;42.25;100845.00;4914234;29;20055;-82
2022/08/14 00:33:30;;;;;;;5.50;3.22;;;;;;;24.80;42.24;100865.38;4916772;29;20115;-82
2022/08/14 00:36:17;;;;;;;4.13;2.92;;;;;;;24.87;42.47;100877.00;4916582;29;20062;-81
2022/08/14 00:39:04;;;;;;;3.75;3.35;;;;;;;24.66;42.24;100845.69;4916973;29;20453;-83
2022/08/14 00:41:35;;;;;;;3.10;2.80;;;;;;;24.82;41.94;100866.00;4920623;29;20398;-82
2022/08/14 00:44:04;;;;;;;3.58;2.83;;;;;;;24.59;41.97;100822.38;4922094;29;20512;-84
2022/08/14 00:46:31;;;;;;;3.47;3.17;;;;;;;24.82;41.81;100855.13;4922460;29;20144;-81
2022/08/14 00:48:59;;;;;;;3.55;2.78;;;;;;;24.84;41.53;100860.34;4923033;29;20115;-84
2022/08/14 00:51:31;;;;;;;3.38;2.95;;;;;;;24.87;41.58;100868.03;4908774;29;20051;-80
2022/08/14 00:54:07;;;;;;;3.65;3.17;;;;;;;24.66;41.68;100826.69;4934146;28;20054;-80
2022/08/14 00:56:50;;;;;;;2.97;2.67;;;;;;;24.89;41.92;100866.75;4938638;28;20057;-81
2022/08/14 00:59:26;;;;;;;2.83;2.63;;;;;;;24.94;41.67;100861.47;4941913;28;20046;-82
2022/08/14 01:01:57;;;;;;;5.65;3.28;;;;;;;24.90;41.92;100863.00;4926409;28;20407;-82
2022/08/14 01:04:25;;;;;;;3.80;3.00;;;;;;;24.91;42.06;100855.69;4926438;28;20054;-81
2022/08/14 01:07:19;;;;;;;2.80;2.60;;;;;;;24.79;42.08;100850.16;4943926;28;20545;-81
2022/08/14 01:10:00;;;;;;;4.80;3.42;;;;;;;24.61;42.25;100839.25;4926104;28;20149;-81
2022/08/14 01:12:28;;;;;;;6.53;3.22;;;;;;;24.03;42.55;100762.53;4942415;28;20059;-81
2022/08/14 01:14:57;;;;;;;3.33;2.80;;;;;;;24.26;42.48;100801.78;4926326;28;20058;-82
2022/08/14 01:21:02;;;;;;;6.75;3.42;;;;;;;24.39;42.54;100826.06;4925552;28;21074;-81
2022/08/14 01:23:10;;;;;;;2.90;2.70;;;;;;;24.34;42.83;100842.19;4942600;28;20606;-81
2022/08/14 01:25:46;;;;;;;3.15;2.83;;;;;;;24.45;42.55;100855.03;4926204;28;20078;-82
2022/08/14 01:28:13;;;;;;;6.78;2.75;;;;;;;23.93;42.08;100754.06;4943169;28;20633;-83
2022/08/14 01:31:00;;;;;;;3.72;2.90;;;;;;;24.42;41.79;100828.34;4941938;28;20062;-82
2022/08/14 01:33:28;;;;;;;3.10;2.90;;;;;;;24.43;41.77;100813.72;4941822;28;20051;-82
2022/08/14 01:35:59;;;;;;;4.95;2.70;;;;;;;24.52;41.54;100820.56;4925213;28;20523;-82
2022/08/14 01:38:33;;;;;;;4.80;2.53;;;;;;;24.44;41.47;100809.13;4943929;28;20051;-81
2022/08/14 01:41:14;;;;;;;2.78;2.58;;;;;;;24.50;41.64;100814.53;4942522;28;20049;-80
2022/08/14 01:44:03;;;;;;;6.05;3.03;;;;;;;23.94;41.61;100733.22;4925642;28;20054;-81
2022/08/14 01:46:33;;;;;;;6.13;3.38;;;;;;;24.48;42.10;100822.06;4925590;28;20093;-82
2022/08/14 01:49:06;;;;;;;3.83;2.72;;;;;;;24.30;42.19;100797.56;4926136;28;20539;-81
2022/08/14 01:51:34;;;;;;;4.93;2.58;;;;;;;24.31;42.00;100804.66;4941085;28;20599;-81
2022/08/14 01:54:08;;;;;;;3.60;3.30;;;;;;;24.41;41.93;100815.81;4926826;28;20141;-81
2022/08/14 01:56:37;;;;;;;3.35;2.72;;;;;;;24.44;41.98;100815.41;4905697;29;20922;-82
2022/08/14 01:59:06;;;;;;;3.15;2.85;;;;;;;24.40;41.86;100797.06;4922629;29;20573;-81
2022/08/14 02:01:36;;;;;;;3.27;2.97;;;;;;;24.25;42.19;100790.09;4909300;29;20055;-82
2022/08/14 02:04:08;;;;;;;4.07;3.17;;;;;;;24.03;42.24;100751.69;4929441;29;20051;-81
2022/08/14 02:06:56;;;;;;;2.95;2.75;;;;;;;24.04;42.31;100745.22;4929928;28;20055;-80
2022/08/14 02:09:23;;;;;;;4.47;3.00;;;;;;;24.25;42.26;100770.28;4913220;29;20242;-82
2022/08/14 02:11:50;;;;;;;2.90;2.70;;;;;;;24.35;42.08;100780.63;4912368;29;20147;-81
2022/08/14 02:14:20;;;;;;;2.92;2.72;;;;;;;24.30;42.23;100770.44;4913777;29;20202;-81
2022/08/14 02:16:58;;;;;;;7.57;2.88;;;;;;;24.31;42.17;100766.66;4929382;29;20106;-81
2022/08/14 02:19:29;;;;;;;3.60;3.30;;;;;;;23.29;42.13;100616.97;4931320;29;20239;-82
2022/08/14 02:21:59;;;;;;;3.75;2.95;;;;;;;24.20;42.22;100765.53;4934383;29;20051;-82
2022/08/14 02:24:29;;;;;;;9.68;3.17;;;;;;;24.26;42.15;100772.75;4919257;29;20139;-81
2022/08/14 02:27:08;;;;;;;3.17;2.85;;;;;;;24.40;42.14;100792.47;4929534;29;20122;-82
2022/08/14 02:29:55;;;;;;;3.05;2.80;;;;;;;24.20;42.53;100759.25;4930280;29;20388;-83
2022/08/14 02:32:28;;;;;;;5.70;3.15;;;;;;;23.96;43.01;100753.63;4936356;29;20051;-82
2022/08/14 02:35:17;;;;;;;4.13;3.20;;;;;;;24.10;43.12;100798.56;4930782;29;20047;-82
2022/08/14 02:37:46;;;;;;;3.67;2.80;;;;;;;24.03;43.39;100792.38;4928806;28;20671;-82
2022/08/14 02:40:20;;;;;;;3.80;2.90;;;;;;;23.95;43.39;100781.78;4930191;29;20055;-81
2022/08/14 02:43:00;;;;;;;7.32;3.25;;;;;;;23.48;43.92;100702.66;4928354;29;20737;-82
2022/08/14 02:45:33;;;;;;;5.25;3.53;;;;;;;23.61;43.79;100745.91;4928356;29;20054;-85
2022/08/14 02:48:06;;;;;;;3.63;3.10;;;;;;;23.79;44.10;100779.63;4913160;29;20478;-80
2022/08/14 02:50:53;;;;;;;3.95;3.13;;;;;;;23.35;44.23;100713.59;4928378;29;20051;-82
2022/08/14 02:53:19;;;;;;;4.07;3.10;;;;;;;23.33;44.46;100726.53;4912125;29;20082;-82
2022/08/14 02:55:46;;;;;;;3.20;2.75;;;;;;;23.65;44.48;100782.38;4928063;29;20265;-82
2022/08/14 02:58:14;;;;;;;3.58;3.10;;;;;;;23.65;44.67;100776.97;4912638;29;20066;-81
2022/08/14 03:00:56;;;;;;;5.68;2.90;;;;;;;23.64;45.12;100778.03;4913940;29;20047;-82
2022/08/14 03:03:24;;;;;;;5.72;3.47;;;;;;;23.38;44.62;100734.84;4928081;29;20700;-82
2022/08/14 03:05:51;;;;;;;6.93;3.45;;;;;;;23.57;44.49;100755.56;4911982;29;20106;-82
2022/08/14 03:08:21;;;;;;;4.47;3.17;;;;;;;23.27;44.38;100700.31;4928225;29;20069;-83
2022/08/14 03:10:48;;;;;;;4.38;3.15;;;;;;;23.51;44.24;100718.47;4927994;29;20050;-81
2022/08/14 03:13:17;;;;;;;5.03;3.50;;;;;;;23.59;44.07;100718.25;4927617;29;20051;-82
2022/08/14 03:15:52;;;;;;;;;;;;;;;23.77;44.42;100738.34;4911792;29;20553;-81
2022/08/14 03:18:25;;;;;;;3.67;3.38;;;;;;;23.46;43.85;100677.69;4926443;29;20467;-82
2022/08/14 03:21:10;;;;;;;4.63;3.00;;;;;;;23.80;43.74;100732.47;4927833;28;20157;-82
2022/08/14 03:23:36;;;;;;;3.58;3.30;;;;;;;23.83;43.25;100732.03;4928381;29;20055;-79
2022/08/14 03:26:10;;;;;;;3.30;3.00;;;;;;;23.81;43.15;100712.44;4927579;28;20054;-80
2022/08/14 03:28:46;;;;;;;6.75;2.45;;;;;;;23.94;43.15;100725.91;4928778;29;20062;-81
2022/08/14 03:31:14;;;;;;;3.60;2.85;;;;;;;23.80;43.08;100708.91;4911652;29;20062;-80
2022/08/14 03:33:42;;;;;;;3.38;2.70;;;;;;;23.61;43.74;100691.72;4928995;29;20058;-82
2022/08/14 03:36:12;;;;;;;3.03;2.63;;;;;;;23.67;44.24;100722.56;4911169;29;20474;-82
2022/08/14 03:39:02;;;;;;;7.00;3.33;;;;;;;22.98;44.49;100622.16;4914267;29;20263;-80
2022/08/14 03:41:47;;;;;;;2.97;2.78;;;;;;;23.48;44.17;100721.63;4927918;28;20063;-81
2022/08/14 03:44:14;;;;;;;4.40;2.90;;;;;;;23.39;44.24;100720.22;4928682;29;20659;-80
2022/08/14 03:47:00;;;;;;;3.33;3.03;;;;;;;23.37;44.64;100727.75;4913940;29;20552;-82
2022/08/14 03:49:29;;;;;;;3.15;2.90;;;;;;;22.92;44.53;100666.31;4911991;29;20047;-82
2022/08/14 03:51:57;;;;;;;3.10;2.80;;;;;;;23.18;44.95;100708.69;4927099;29;20059;-80
2022/08/14 03:54:27;;;;;;;3.40;2.93;;;;;;;23.23;44.50;100717.00;4927216;29;20573;-81
2022/08/14 03:56:53;;;;;;;3.50;3.20;;;;;;;23.13;44.36;100710.38;4927533;29;20075;-81
2022/08/14 03:59:21;;;;;;;3.00;2.80;;;;;;;23.15;45.22;100709.13;4911273;29;20059;-81
2022/08/14 04:01:48;;;;;;;2.80;2.60;;;;;;;23.03;44.61;100692.75;4926921;29;20172;-81
2022/08/14 04:04:31;;;;;;;4.25;3.25;;;;;;;23.32;44.15;100730.28;4927258;29;20269;-81
2022/08/14 04:06:59;;;;;;;;;;;;;;;23.27;44.01;100738.22;4927622;29;20047;-82
2022/08/14 04:09:26;;;;;;;3.45;3.17;;;;;;;23.20;43.92;100725.53;4927250;28;20266;-81
2022/08/14 04:11:53;;;;;;;3.65;2.63;;;;;;;23.21;44.13;100713.69;4926762;29;20580;-80
2022/08/14 04:14:22;;;;;;;6.80;3.63;;;;;;;23.39;43.66;100744.63;4926991;29;20059;-81
2022/08/14 04:16:49;;;;;;;3.92;3.08;;;;;;;22.95;43.46;100659.63;4926720;29;20399;-80
2022/08/14 04:19:18;;;;;;;3.28;2.55;;;;;;;23.33;43.45;100723.84;4927258;29;20211;-81
2022/08/14 04:21:45;;;;;;;3.78;3.25;;;;;;;23.26;43.45;100718.44;4926700;28;20518;-82
2022/08/14 04:24:30;;;;;;;4.22;2.95;;;;;;;23.23;43.22;100711.59;4911419;29;20055;-83
2022/08/14 04:27:10;;;;;;;3.63;3.28;;;;;;;23.48;43.28;100740.59;4910119;29;20101;-81
2022/08/14 04:29:42;;;;;;;3.70;2.80;;;;;;;23.21;43.52;100699.31;4927549;29;20305;-82
2022/08/14 04:32:11;;;;;;;3.38;2.95;;;;;;;23.47;43.28;100738.94;4917341;29;20067;-81
2022/08/14 04:34:58;;;;;;;4.45;3.38;;;;;;;23.48;43.28;100739.78;4906856;29;20055;-81
2022/08/14 04:45:44;;;;;;;5.70;2.70;;;;;;;23.41;42.79;100675.63;4926720;29;20135;-81
2022/08/14 04:48:19;;;;;;;4.30;3.28;;;;;;;23.81;42.35;100709.72;4925848;29;20153;-81
2022/08/14 04:51:09;;;;;;;3.35;3.05;;;;;;;23.84;42.58;100720.16;4927386;29;20047;-81
2022/08/14 04:53:41;;;;;;;3.45;3.05;;;;;;;23.78;42.63;100712.91;4925124;28;20154;-80
2022/08/14 04:56:21;;;;;;;3.08;2.80;;;;;;;23.55;42.43;100675.53;4926477;29;20053;-81
2022/08/14 04:59:03;;;;;;;3.40;2.90;;;;;;;23.54;42.74;100674.69;4911426;29;20153;-81
2022/08/14 05:01:40;;;;;;;6.72;3.40;;;;;;;23.65;42.85;100705.69;4910737;29;20168;-81
2022/08/14 05:04:14;;;;;;;3.50;2.95;;;;;;;23.62;42.98;100706.94;4910725;29;20841;-81
2022/08/14 05:06:45;;;;;;;2.75;2.50;;;;;;;22.85;43.31;100583.50;4925493;29;20082;-80
2022/08/14 05:09:14;;;;;;;5.78;3.47;;;;;;;23.48;43.55;100675.59;4926120;28;20059;-80
2022/08/14 05:11:43;;;;;;;5.35;3.03;;;;;;;23.63;43.44;100714.03;4924925;29;20354;-81
2022/08/14 05:14:10;;;;;;;3.75;2.95;;;;;;;23.41;44.47;100686.47;4926435;29;20052;-81
2022/08/14 05:16:57;;;;;;;3.35;3.03;;;;;;;23.39;44.82;100687.72;4926335;28;20504;-81
2022/08/14 05:19:28;;;;;;;3.17;2.90;;;;;;;23.45;44.83;100712.06;4926072;29;20071;-81
2022/08/14 05:21:57;;;;;;;4.78;3.05;;;;;;;23.49;45.53;100723.28;4926077;29;20061;-83
2022/08/14 05:24:48;;;;;;;3.03;2.80;;;;;;;23.29;45.46;100695.50;4927159;29;20484;-82
2022/08/14 05:27:18;;;;;;;3.95;3.58;;;;;;;23.53;45.30;100729.94;4925811;29;20051;-81
2022/08/14 05:29:53;;;;;;;3.95;2.53;;;;;;;23.59;45.02;100723.66;4927926;29;20449;-81
2022/08/14 05:32:22;;;;;;;3.80;3.42;;;;;;;23.58;44.97;100708.44;4910524;29;20512;-83
2022/08/14 05:34:56;;;;;;;3.63;3.17;;;;;;;23.70;45.74;100732.13;4926708;29;20055;-81
2022/08/14 05:37:23;;;;;;;3.88;3.58;;;;;;;23.72;45.53;100721.91;4926070;29;20138;-81
2022/08/14 05:39:51;;;;;;;5.22;3.33;;;;;;;23.65;45.54;100703.78;4926279;29;20058;-82
2022/08/14 05:42:18;;;;;;;4.45;4.05;;;;;;;23.83;45.55;100726.63;4910243;29;20139;-82
2022/08/14 05:44:52;;;;;;;4.00;2.90;;;;;;;23.85;45.54;100729.94;4911221;29;20542;-81
2022/08/14 05:47:21;;;;;;;5.25;3.17;;;;;;;23.79;45.99;100709.16;4928841;29;20944;-81
2022/08/14 05:49:49;;;;;;;4.97;2.95;;;;;;;23.93;45.85;100726.94;4929526;29;20106;-81
2022/08/14 05:52:17;;;;;;;4.10;3.25;;;;;;;23.91;45.60;100707.38;4929058;29;20063;-81
2022/08/14 05:54:51;;;;;;;2.90;2.70;;;;;;;24.00;45.25;100714.16;4930134;29;20157;-82
2022/08/14 05:57:19;;;;;;;4.53;2.45;;;;;;;23.57;44.79;100624.63;4913387;29;20191;-80
2022/08/14 05:59:46;;;;;;;3.45;3.15;;;;;;;24.26;44.80;100704.13;4916739;28;20556;-81
2022/08/14 06:02:13;;;;;;;3.45;3.13;;;;;;;24.36;44.94;100698.19;4913816;29;20079;-80
2022/08/14 06:04:47;;;;;;;3.20;2.92;;;;;;;24.43;43.55;100678.06;4927949;28;20055;-81
2022/08/14 06:07:14;;;;;;;3.15;2.85;;;;;;;24.34;43.40;100663.13;4912924;29;20055;-81
2022/08/14 06:09:41;;;;;;;3.22;3.00;;;;;;;23.98;42.42;100610.53;4913072;29;20142;-81
2022/08/14 06:12:16;;;;;;;5.07;2.88;;;;;;;24.68;43.28;100704.31;4913798;29;20535;-80
2022/08/14 06:15:06;;;;;;;3.28;2.92;;;;;;;24.31;43.57;100640.00;4930460;29;20055;-81
2022/08/14 06:17:47;;;;;;;6.25;3.00;;;;;;;24.62;44.17;100681.63;4924236;29;20051;-81
2022/08/14 06:20:25;;;;;;;4.95;3.38;;;;;;;24.73;43.98;100699.03;4915327;29;20056;-81
2022/08/14 06:22:54;;;;;;;3.83;2.92;;;;;;;23.62;43.37;100517.25;4925625;29;20444;-81
2022/08/14 06:25:22;;;;;;;4.22;3.20;;;;;;;24.57;43.59;100656.25;4928649;29;20258;-81
2022/08/14 06:27:50;;;;;;;11.27;3.53;;;;;;;24.36;44.31;100606.75;4928260;28;20051;-81
2022/08/14 06:30:20;;;;;;;4.88;3.25;;;;;;;24.91;43.30;100688.16;4928479;28;20246;-81
2022/08/14 06:32:49;;;;;;;3.17;2.88;;;;;;;24.91;43.07;100676.47;4913434;29;20868;-81
2022/08/14 06:35:22;;;;;;;3.88;3.15;;;;;;;25.12;41.78;100686.81;4929057;29;20055;-81
2022/08/14 06:37:51;;;;;;;3.20;2.90;;;;;;;25.41;41.15;100702.53;4930619;29;20146;-81
2022/08/14 06:40:21;;;;;;;3.78;2.63;;;;;;;25.54;40.48;100699.63;4929362;28;20508;-81
2022/08/14 06:42:55;;;;;;;2.65;2.45;;;;;;;25.43;40.46;100674.06;4913659;29;20100;-83
2022/08/14 06:45:22;;;;;;;3.20;2.90;;;;;;;25.66;40.17;100691.50;4920998;29;20134;-82
2022/08/14 06:47:53;;;;;;;3.13;2.87;;;;;;;25.79;39.56;100686.63;4926324;29;20346;-82
2022/08/14 06:50:21;;;;;;;5.40;2.55;;;;;;;25.89;39.85;100696.97;4924584;29;20195;-81
2022/08/14 06:52:54;;;;;;;4.03;2.88;;;;;;;25.75;40.09;100680.03;4921093;29;20285;-82
2022/08/14 06:55:21;;;;;;;8.60;2.70;;;;;;;26.03;38.94;100678.53;4927058;29;20070;-81
2022/08/14 06:57:53;;;;;;;3.00;2.72;;;;;;;26.07;39.03;100696.03;4933555;29;20047;-82
2022/08/14 07:00:26;;;;;;;2.80;2.60;;;;;;;25.84;39.08;100633.44;4945794;29;20043;-82
2022/08/14 07:05:49;;;;;;;2.83;2.63;;;;;;;26.17;38.03;100660.91;4931174;29;20461;-81
2022/08/14 07:08:28;;;;;;;5.80;3.15;;;;;;;26.40;38.49;100680.97;4928364;29;20381;-81
2022/08/14 07:11:00;;;;;;;2.83;2.60;;;;;;;26.38;38.05;100672.22;4929450;29;20066;-81
2022/08/14 07:13:27;;;;;;;3.25;2.58;;;;;;;26.22;38.19;100633.81;4912350;29;20161;-81
2022/08/14 07:15:58;;;;;;;3.22;2.92;;;;;;;26.54;37.94;100671.50;4930134;29;20051;-82
2022/08/14 07:18:34;;;;;;;5.00;2.70;;;;;;;26.57;37.67;100672.91;4930317;29;20667;-80
2022/08/14 07:21:03;;;;;;;3.00;2.67;;;;;;;26.76;37.54;100679.03;4912745;29;20062;-81
2022/08/14 07:23:30;;;;;;;4.07;2.47;;;;;;;26.55;38.09;100640.47;4912165;29;20077;-81
2022/08/14 07:26:00;;;;;;;4.72;3.00;;;;;;;26.88;37.62;100687.97;4928311;29;20066;-80
2022/08/14 07:28:39;;;;;;;3.47;2.83;;;;;;;26.95;38.01;100675.06;4912594;29;20162;-82
2022/08/14 07:31:11;;;;;;;2.72;2.45;;;;;;;27.10;36.60;100684.59;4929535;29;20652;-81
2022/08/14 07:33:44;;;;;;;3.15;2.72;;;;;;;27.18;35.89;100681.44;4912480;29;20071;-81
2022/08/14 07:36:18;;;;;;;3.13;2.88;;;;;;;27.15;35.99;100671.06;4929633;29;20556;-82
2022/08/14 07:38:59;;;;;;;3.03;2.60;;;;;;;27.27;36.66;100685.47;4928587;29;20051;-82
2022/08/14 07:41:28;;;;;;;5.57;2.72;;;;;;;27.27;36.34;100680.03;4912556;29;20609;-79
2022/08/14 07:44:00;;;;;;;2.35;2.15;;;;;;;27.25;35.94;100682.16;4928217;29;20133;-81
2022/08/14 07:46:46;;;;;;;2.92;2.63;;;;;;;27.42;35.39;100688.44;4929150;29;20549;-81
2022/08/14 07:49:15;;;;;;;3.88;2.60;;;;;;;27.45;35.11;100677.09;4928077;29;20418;-81
2022/08/14 07:51:43;;;;;;;5.07;2.42;;;;;;;27.52;34.81;100665.16;4928996;29;20314;-81
2022/08/14 07:54:11;;;;;;;5.57;2.55;;;;;;;27.76;34.62;100696.66;4924654;28;20447;-82
2022/08/14 07:56:42;;;;;;;2.75;2.55;;;;;;;27.77;34.51;100692.88;4908766;29;20051;-82
2022/08/14 07:59:16;;;;;;;4.97;2.50;;;;;;;27.62;34.00;100659.88;4909311;29;20087;-83
2022/08/14 08:01:44;;;;;;;4.75;2.83;;;;;;;27.69;33.20;100652.34;4908519;29;20067;-81
2022/08/14 08:04:25;;;;;;;4.22;2.90;;;;;;;28.07;32.85;100688.97;4909021;29;20055;-82
2022/08/14 08:06:53;;;;;;;2.63;2.40;;;;;;;27.90;32.45;100651.63;4910447;29;20534;-82
2022/08/14 08:09:26;;;;;;;2.67;2.47;;;;;;;28.28;31.63;100682.75;4909178;29;20142;-83
2022/08/14 08:12:01;;;;;;;6.32;2.53;;;;;;;28.17;31.96;100650.91;4908498;29;20518;-81
2022/08/14 08:14:33;;;;;;;4.10;2.78;;;;;;;28.14;32.21;100656.88;4910099;29;20134;-82
2022/08/14 08:17:22;;;;;;;3.30;2.63;;;;;;;28.31;32.63;100681.41;4921523;29;20052;-81
2022/08/14 08:19:49;;;;;;;2.70;2.50;;;;;;;28.27;32.63;100678.34;4908615;29;20051;-80
2022/08/14 08:22:18;;;;;;;4.82;2.50;;;;;;;28.14;32.05;100632.31;4908114;29;20459;-81
2022/08/14 08:24:54;;;;;;;3.35;2.47;;;;;;;28.52;31.45;100649.75;4908239;29;20134;-79
2022/08/14 08:27:28;;;;;;;3.35;2.55;;;;;;;28.67;31.84;100693.63;4922483;29;20669;-80
2022/08/14 08:30:03;;;;;;;3.55;3.10;;;;;;;28.68;31.85;100695.28;4908874;29;20181;-80
2022/08/14 08:32:42;;;;;;;5.13;2.75;;;;;;;28.53;31.71;100662.34;4908736;29;20465;-82
2022/08/14 08:35:19;;;;;;;3.00;2.65;;;;;;;28.62;30.73;100663.53;4909958;29;20087;-79
2022/08/14 08:37:47;;;;;;;3.15;2.85;;;;;;;28.74;31.12;100669.69;4924134;29;20088;-81
2022/08/14 08:40:41;;;;;;;2.38;2.17;;;;;;;28.75;31.17;100646.75;4908165;29;20592;-81
2022/08/14 08:43:20;;;;;;;6.22;3.00;;;;;;;28.89;30.72;100670.94;4923947;29;20063;-81
2022/08/14 08:46:05;;;;;;;2.67;2.47;;;;;;;28.91;29.88;100663.28;4907938;29;20067;-81
2022/08/14 08:48:45;;;;;;;5.38;2.58;;;;;;;28.94;30.25;100652.69;4922333;29;20082;-81
2022/08/14 08:51:24;;;;;;;3.47;2.95;;;;;;;28.76;30.63;100595.66;4909659;29;20134;-80
2022/08/14 08:54:04;;;;;;;2.85;2.65;;;;;;;29.41;30.15;100681.31;4923126;28;20054;-81
2022/08/14 08:56:42;;;;;;;3.22;2.92;;;;;;;29.29;29.72;100662.34;4911591;29;20508;-81
2022/08/14 08:59:25;;;;;;;2.67;2.47;;;;;;;29.55;28.59;100677.06;4926908;29;20082;-79
2022/08/14 09:02:04;;;;;;;3.15;2.70;;;;;;;29.68;28.30;100677.75;4927392;29;20545;-81
2022/08/14 09:04:43;;;;;;;2.83;2.55;;;;;;;29.86;28.15;100674.59;4911155;29;20059;-81
2022/08/14 09:07:25;;;;;;;3.33;2.40;;;;;;;29.80;28.21;100673.72;4928203;29;20055;-81
2022/08/14 09:09:54;;;;;;;3.00;2.72;;;;;;;29.92;28.63;100667.25;4928846;29;20059;-80
2022/08/14 09:12:27;;;;;;;2.67;2.47;;;;;;;29.98;29.06;100668.94;4926873;29;20158;-81
2022/08/14 09:15:03;;;;;;;2.78;2.58;;;;;;;29.69;28.97;100614.56;4927439;29;20052;-80
2022/08/14 09:17:42;;;;;;;5.20;2.33;;;;;;;30.01;28.47;100650.06;4926948;29;20429;-82
2022/08/14 09:20:12;;;;;;;4.07;2.50;;;;;;;30.13;28.22;100624.41;4928590;28;20686;-82
2022/08/14 09:22:57;;;;;;;2.80;2.60;;;;;;;30.37;28.36;100650.28;4932269;29;20559;-81
2022/08/14 09:25:23;;;;;;;3.17;2.88;;;;;;;30.63;28.31;100669.53;4914520;29;20630;-80
2022/08/14 09:28:11;;;;;;;3.83;2.60;;;;;;;30.76;27.99;100651.78;4917252;29;20062;-82
2022/08/14 09:30:48;;;;;;;2.35;2.15;;;;;;;30.83;27.76;100652.41;4914762;29;20051;-82
2022/08/14 09:33:54;;;;;;;3.20;2.55;;;;;;;30.90;28.47;100663.06;4929604;29;20448;-80
2022/08/14 09:36:47;;;;;;;4.15;2.88;;;;;;;31.09;27.42;100655.97;4931701;29;20167;-80
2022/08/14 09:39:35;;;;;;;3.72;2.67;;;;;;;30.15;27.80;100499.03;4930757;29;20058;-81
2022/08/14 09:42:11;;;;;;;3.10;2.80;;;;;;;31.14;27.35;100642.28;4930617;29;20077;-83
2022/08/14 09:45:14;;;;;;;3.40;2.60;;;;;;;31.26;27.19;100644.75;4933310;29;20075;-82
2022/08/14 09:47:55;;;;;;;2.88;2.67;;;;;;;31.39;26.66;100647.00;4937013;28;20522;-80
2022/08/14 09:50:28;;;;;;;5.13;2.50;;;;;;;30.93;26.67;100553.75;4916822;29;20252;-81
2022/08/14 09:53:02;;;;;;;2.90;2.63;;;;;;;31.52;26.51;100640.13;4932208;28;20438;-81
2022/08/14 09:55:32;;;;;;;2.45;2.25;;;;;;;31.57;26.37;100620.09;4932654;29;20051;-81
2022/08/14 09:58:08;;;;;;;5.35;2.35;;;;;;;31.39;26.33;100569.34;4932270;29;20051;-82
2022/08/14 10:01:00;;;;;;;3.58;2.42;;;;;;;31.78;25.83;100615.41;4930368;29;20051;-81
2022/08/14 10:03:35;;;;;;;3.17;2.55;;;;;;;31.87;26.04;100622.81;4930890;28;20448;-82
2022/08/14 10:06:12;;;;;;;3.28;2.40;;;;;;;32.11;25.98;100633.19;4928934;29;20047;-82
2022/08/14 10:08:50;;;;;;;4.22;2.65;;;;;;;32.28;26.24;100621.84;4915635;29;20485;-81
2022/08/14 10:11:20;;;;;;;3.53;2.63;;;;;;;31.88;25.87;100535.78;4914549;29;20150;-82
2022/08/14 10:13:53;;;;;;;3.55;2.78;;;;;;;32.39;25.55;100585.00;4932517;29;20103;-81
2022/08/14 10:16:27;;;;;;;2.60;2.40;;;;;;;32.73;24.98;100603.53;4914978;29;20635;-82
2022/08/14 10:19:03;;;;;;;7.95;2.47;;;;;;;33.03;25.01;100621.78;4932136;29;20050;-81
2022/08/14 10:21:34;;;;;;;3.55;2.63;;;;;;;33.05;25.07;100616.81;4930537;29;20666;-82
2022/08/14 10:24:22;;;;;;;2.75;2.55;;;;;;;33.25;24.43;100621.31;4931219;29;20061;-82
2022/08/14 10:27:00;;;;;;;4.88;2.42;;;;;;;33.34;24.52;100605.84;4930854;29;20177;-82
2022/08/14 10:29:39;;;;;;;2.92;2.30;;;;;;;33.49;23.99;100606.81;4930413;29;20087;-82
2022/08/14 10:32:10;;;;;;;2.78;2.38;;;;;;;33.56;24.12;100612.84;4914100;29;20078;-82
2022/08/14 10:35:08;;;;;;;2.60;2.40;;;;;;;33.66;23.63;100595.41;4930668;29;20501;-82
2022/08/14 10:37:48;;;;;;;4.15;2.50;;;;;;;33.72;23.48;100592.31;4914841;29;20074;-82
2022/08/14 10:40:27;;;;;;;4.65;3.08;;;;;;;34.11;23.07;100596.03;4928952;29;20057;-83
2022/08/14 10:43:19;;;;;;;3.15;2.22;;;;;;;33.99;22.66;100530.31;4930527;28;20269;-81
2022/08/14 10:46:00;;;;;;;2.65;2.38;;;;;;;34.68;22.57;100578.44;4931705;29;20058;-82
2022/08/14 10:49:01;;;;;;;3.53;2.45;;;;;;;34.51;22.31;100514.72;4932446;29;20054;-84
2022/08/14 10:51:33;;;;;;;2.88;2.47;;;;;;;34.79;21.47;100550.75;4937020;29;20448;-82
2022/08/14 10:54:08;;;;;;;3.45;2.45;;;;;;;35.01;21.69;100574.94;4914052;29;20550;-83
2022/08/14 10:56:56;;;;;;;3.67;2.47;;;;;;;34.80;21.79;100546.84;4911058;29;20508;-82
2022/08/14 10:59:23;;;;;;;2.25;2.08;;;;;;;34.84;22.26;100551.47;4910945;29;20047;-83
2022/08/14 11:02:01;;;;;;;2.70;2.50;;;;;;;34.85;21.93;100533.78;4909921;29;20048;-82
2022/08/14 11:04:28;;;;;;;2.50;2.28;;;;;;;34.81;22.62;100515.38;4910992;29;20079;-83
2022/08/14 11:06:57;;;;;;;3.33;2.40;;;;;;;34.82;21.99;100494.97;4910144;29;20055;-82
2022/08/14 11:09:24;;;;;;;2.60;2.30;;;;;;;35.18;21.86;100533.81;4912485;29;20052;-82
2022/08/14 11:11:55;;;;;;;2.25;2.15;;;;;;;34.72;21.33;100426.25;4920747;29;20047;-83
2022/08/14 11:14:58;;;;;;;4.78;2.40;;;;;;;35.55;21.65;100534.78;4929436;29;20057;-82
2022/08/14 11:17:30;;;;;;;3.03;2.45;;;;;;;35.79;21.27;100545.66;4932392;28;20131;-83
2022/08/14 11:20:00;;;;;;;7.63;2.25;;;;;;;35.67;20.90;100531.56;4930108;29;20063;-81
2022/08/14 11:22:30;;;;;;;2.83;2.28;;;;;;;35.66;21.04;100511.41;4930786;29;20518;-82
2022/08/14 11:25:17;;;;;;;3.20;2.35;;;;;;;35.78;21.01;100529.41;4935200;29;20055;-83
2022/08/14 11:27:45;;;;;;;2.60;2.40;;;;;;;35.49;20.86;100506.47;4923799;29;20059;-83
2022/08/14 11:30:18;;;;;;;;;;;;;;;35.79;20.89;100540.16;4926360;29;20061;-83
2022/08/14 11:33:06;;;;;;;;;;;;;;;36.07;19.83;100543.72;4943740;29;19926;-83
2022/08/14 11:35:36;;;;;;;2.38;2.15;;;;;;;36.15;20.73;100533.91;4944523;29;20554;-83
2022/08/14 11:38:13;;;;;;;2.17;2.08;;;;;;;35.95;20.32;100494.50;4947995;29;20051;-83
2022/08/14 11:40:42;;;;;;;2.95;2.10;;;;;;;36.00;20.68;100546.06;4949289;29;20061;-83
2022/08/14 11:43:13;;;;;;;2.22;2.10;;;;;;;36.14;20.89;100529.50;4950371;28;20051;-83
2022/08/14 11:45:47;;;;;;;2.50;2.30;;;;;;;35.39;20.43;100401.81;4935255;29;20066;-83
2022/08/14 11:48:15;;;;;;;4.15;2.35;;;;;;;36.24;20.51;100504.41;4953447;29;20121;-82
2022/08/14 11:51:11;;;;;;;3.25;2.65;;;;;;;36.32;20.09;100466.94;4950211;29;20310;-82
2022/08/14 11:53:40;;;;;;;2.58;2.38;;;;;;;36.95;19.67;100542.56;4928231;29;20087;-83
2022/08/14 11:56:07;;;;;;;4.88;2.25;;;;;;;36.91;19.90;100522.19;4926033;29;20111;-83
2022/08/14 11:58:37;;;;;;;2.75;2.33;;;;;;;37.12;19.91;100536.34;4910280;29;20074;-83
2022/08/14 12:01:08;;;;;;;2.35;2.15;;;;;;;37.12;20.10;100523.31;4909749;29;20055;-80
2022/08/14 12:03:39;;;;;;;2.92;2.22;;;;;;;37.31;19.79;100527.81;4925263;29;20064;-81
2022/08/14 12:06:22;;;;;;;2.70;2.50;;;;;;;37.20;19.56;100527.28;4908992;29;20055;-83
2022/08/14 12:09:05;;;;;;;2.05;1.95;;;;;;;36.72;19.51;100456.00;4909448;29;20051;-82
2022/08/14 12:11:41;;;;;;;5.60;2.05;;;;;;;37.21;19.48;100521.44;4909419;29;20925;-81
2022/08/14 12:14:13;;;;;;;2.70;2.20;;;;;;;37.14;19.78;100507.22;4909611;29;20581;-81
2022/08/14 12:17:03;;;;;;;2.25;1.90;;;;;;;37.06;19.51;100504.41;4909791;29;20055;-83